Salinas Municipal Airport
KSNS : now visible

Airfield :











YOU CAN JOIN US ON...

 
LOGIN :

Register | Disclaimer

   EN    FR    IT 

 









Legend :    VFR   Marginal VFR   IFR   Intensive IFR   Very Intensive IFR
Visi :
Ceiling :
>= 8 km
>= 3000ft
5 to 8 km
1000 to 3000 ft
1500m to 5 km
500 to 1000 ft
800 to 1500m
200 to 500 ft
< 800m
< 200 ft
Symbols :   Thunderstorms  Fog  Heavy snow  Heavy precipitations  Wind > 20 kt






- Airport Elevation : 85 ft


KSNS - Salinas Municipal

CURRENT METAR :
  • 291553Z 36003KT 10SM OVC008 15/12 A2992 RMK AO2 SLP141 T01500117

EXPIRED METARs :
  • 291453Z 36006KT 10SM OVC008 15/12 A2992 RMK AO2 SLP140 T01500122 51003
  • 291353Z 00000KT 10SM OVC007 14/12 A2992 RMK AO2 SLP139 T01440122

TAF KSNS
Valid from the 29 at 12:00 until the 30 at 12:00 UTC


291141Z 2912/3012 VRB03KT 6SM BR OVC005
FM291600 VRB04KT P6SM SCT007 BKN015 BKN200
FM291800 31010KT P6SM FEW010 BKN200
FM292000 31015KT P6SM FEW015 BKN180
FM300100 32017G22KT P6SM FEW015 BKN150
FM300500 VRB05KT P6SM VCSH FEW015 SCT040 BKN080
KZOA FIR / North America



MET'MAP, your aeronautical weather chart ! - Copyright ORBIFLY December 2007 - Disclaimer

ORBIFLY MET'MAP TEAM :

Programming & Development : Alexandra Zaïnal
Concept & original design : Baudouin d'Aumeries
Assistance for programming : Marc-Olivier Méhu
Technical & hardware support : Manuel Goepfert

Contact : metmap@orbifly.com




SOURCES & CREDITS :

   NOAA       Earth
Advisory